Wilson Gdynia — 8PSA — position and weather

sailwx.info

Track history (hours):
 
Tides and Currents Weather Stations Pressure Air Temp Water Temp Dewpoint Dewpoint Depression Visibility Wind Speed Wind Dir Waves Ship Positions

Wilson Gdynia

Last reported at 2015-Sep-04 02:33 UTC. Time now 2015-Sep-04 21:05 UTC.
Position N 63°38' E 009°34'.

Length 88 m; draft 5.3 m.

Type: Cargo ship. MMSI: 314192000.

Date/timePositionNaut miles runAvg speedWind from/ knotsBaromVisibWave heightAir tempDewpointWater temp
2015-Sep-04 02:33N 63°38' E 009°34'8 7.8
2015-Sep-04 01:33N 63°35' E 009°50'9 9.5
2015-Sep-04 00:34N 63°29' E 010°08'1110.7
2015-Sep-03 23:33N 63°35' E 010°29'1111.0
2015-Sep-03 22:33N 63°41' E 010°49'1010.5
2015-Sep-03 21:33N 63°49' E 011°03'10 9.5
2015-Sep-03 20:33N 63°59' E 011°06'0 0.0
2015-Sep-03 19:33N 63°59' E 011°06'0 0.0
2015-Sep-03 18:34N 63°59' E 011°06'0 0.0
2015-Sep-03 17:34N 63°59' E 011°06'0 0.0
2015-Sep-03 16:34N 63°59' E 011°06'0 0.0
2015-Sep-03 15:34N 63°59' E 011°06'0 0.0
2015-Sep-03 14:33N 63°59' E 011°06'0 0.0
2015-Sep-03 13:34N 63°59' E 011°06'0 0.0
2015-Sep-03 12:34N 63°59' E 011°06'0 0.0
2015-Sep-03 11:34N 63°59' E 011°06'0 0.0
2015-Sep-03 10:34N 63°59' E 011°06'0 0.0
2015-Sep-03 09:34N 63°59' E 011°06'0 0.0
2015-Sep-03 08:34N 63°59' E 011°06'0 0.0
2015-Sep-03 07:33N 63°59' E 011°06'0 0.0
2015-Sep-03 06:34N 63°59' E 011°06'0 0.0
2015-Sep-03 05:34N 63°59' E 011°06'0 0.0
2015-Sep-03 04:34N 63°59' E 011°06'0 0.0
2015-Sep-03 03:34N 63°59' E 011°06'0 0.0
2015-Sep-03 02:34N 63°59' E 011°06'0 0.0
2015-Sep-03 01:34N 63°59' E 011°06'0 0.0
2015-Sep-03 00:34N 63°59' E 011°06'0 0.0
2015-Sep-02 23:34N 63°59' E 011°06'0 0.0
2015-Sep-02 22:34N 63°59' E 011°06'0 0.0
2015-Sep-02 21:34N 63°59' E 011°06'0 0.0
2015-Sep-02 20:34N 63°59' E 011°06'0 0.0
2015-Sep-02 19:34N 63°59' E 011°06'0 0.0
2015-Sep-02 18:33N 63°59' E 011°06'4 3.8
2015-Sep-02 17:33N 63°55' E 011°04'1010.3
2015-Sep-02 16:34N 63°45' E 010°59'1110.5
2015-Sep-02 15:34N 63°38' E 010°41'1110.8
2015-Sep-02 14:33N 63°29' E 010°27'3 2.8
2015-Sep-02 13:33N 63°27' E 010°24'0 0.0
2015-Sep-02 12:33N 63°27' E 010°24'0 0.1
2015-Sep-02 11:33N 63°27' E 010°24'0 0.1
2015-Sep-02 10:33N 63°27' E 010°24'0 0.0
2015-Sep-02 09:33N 63°27' E 010°24'0 0.1
2015-Sep-02 08:33N 63°27' E 010°24'0 0.0
2015-Sep-02 07:33N 63°27' E 010°24'0 0.1
2015-Sep-02 06:33N 63°27' E 010°24'0 0.1
2015-Sep-02 05:33N 63°27' E 010°24'0 0.0
2015-Sep-02 04:33N 63°27' E 010°24'0 0.0
2015-Sep-02 03:33N 63°27' E 010°24'0 0.1
2015-Sep-02 02:33N 63°27' E 010°24'0 0.0
2015-Sep-02 01:33N 63°27' E 010°24'0 0.0
2015-Sep-02 00:33N 63°27' E 010°24'0 0.0
2015-Sep-01 23:33N 63°27' E 010°24'0 0.1
2015-Sep-01 22:33N 63°27' E 010°24'0 0.1
2015-Sep-01 21:33N 63°27' E 010°24'0 0.1
2015-Sep-01 20:33N 63°27' E 010°24'0 0.0
2015-Sep-01 19:33N 63°27' E 010°24'0 0.0
2015-Sep-01 18:33N 63°27' E 010°24'0 0.0
2015-Sep-01 17:33N 63°27' E 010°24'0 0.0
2015-Sep-01 16:33N 63°27' E 010°24'0 0.0
2015-Sep-01 15:33N 63°27' E 010°24'0 0.0
2015-Sep-01 14:33N 63°27' E 010°24'6 6.2
2015-Sep-01 13:34N 63°28' E 010°10'8 7.9
2015-Sep-01 12:34N 63°20' E 010°09'1 1.1
2015-Sep-01 11:31N 63°19' E 010°10'0 0.0
2015-Sep-01 10:31N 63°19' E 010°10'0 0.0
2015-Sep-01 09:31N 63°19' E 010°10'0 0.0
2015-Sep-01 08:31N 63°19' E 010°10'0 0.0
2015-Sep-01 07:31N 63°19' E 010°10'0 0.0
2015-Sep-01 06:31N 63°19' E 010°10'0 0.0
2015-Sep-01 05:25N 63°19' E 010°10'0 0.0
2015-Sep-01 04:31N 63°19' E 010°10'0 0.0
2015-Sep-01 03:31N 63°19' E 010°10'0 0.0
2015-Sep-01 02:31N 63°19' E 010°10'0 0.0
2015-Sep-01 01:31N 63°19' E 010°10'0 0.0
2015-Sep-01 00:31N 63°19' E 010°10'0 0.0
2015-Aug-31 23:31N 63°19' E 010°10'0 0.0
2015-Aug-31 22:31N 63°19' E 010°10'0 0.0
2015-Aug-31 21:31N 63°19' E 010°10'0 0.0
2015-Aug-31 20:31N 63°19' E 010°10'0 0.0
2015-Aug-31 19:28N 63°19' E 010°10'0 0.0
2015-Aug-31 18:31N 63°19' E 010°10'0 0.0
2015-Aug-31 17:31N 63°19' E 010°10'0 0.0
2015-Aug-31 16:31N 63°19' E 010°10'0 0.0
2015-Aug-31 15:31N 63°19' E 010°10'0 0.0
2015-Aug-31 14:31N 63°19' E 010°10'0 0.0
2015-Aug-31 13:31N 63°19' E 010°10'0 0.0
2015-Aug-31 12:28N 63°19' E 010°10'0 0.0
2015-Aug-31 11:31N 63°19' E 010°10'0 0.0
2015-Aug-31 10:31N 63°19' E 010°10'0 0.0
2015-Aug-31 09:31N 63°19' E 010°10'0 0.0
2015-Aug-31 08:31N 63°19' E 010°10'0 0.0
2015-Aug-31 07:31N 63°19' E 010°10'0 0.0
2015-Aug-31 06:31N 63°19' E 010°10'1 0.6
2015-Aug-31 05:33N 63°19' E 010°10'7 7.2
2015-Aug-31 04:33N 63°25' E 010°01'1010.1
2015-Aug-31 03:33N 63°34' E 009°50'8 7.5
2015-Aug-31 02:33N 63°38' E 009°35'300 7.9
2015-Aug-29 12:28N 59°12' E 004°44'6 7.0
2015-Aug-29 11:34N 59°07' E 004°50'7 7.2
2015-Aug-29 10:33N 59°01' E 004°58'9 8.6
2015-Aug-29 09:34N 58°53' E 005°06'24 7.8
2015-Aug-29 06:30N 58°33' E 005°30'7 7.5
2015-Aug-29 05:33N 58°27' E 005°39'7 7.2
2015-Aug-29 04:34N 58°22' E 005°49'7 6.9
2015-Aug-29 03:30N 58°17' E 005°58'77 5.5
2015-Aug-28 13:33N 58°01' E 008°20'6 5.7
2015-Aug-28 12:32N 58°04' E 008°29'5 5.6
2015-Aug-28 11:33N 58°08' E 008°37'75 7.4
2015-Aug-28 01:31N 58°55' E 010°28'6 5.9
2015-Aug-28 00:33N 58°59' E 010°36'6 5.6
2015-Aug-27 23:33N 59°02' E 010°45'7 6.0
2015-Aug-27 22:26N 59°01' E 010°59'910.0
2015-Aug-27 21:33N 59°10' E 010°57'7 7.0
2015-Aug-27 20:33N 59°16' E 011°05'0 0.0
2015-Aug-27 17:31N 59°16' E 011°05'0 0.0
2015-Aug-27 16:31N 59°16' E 011°05'0 0.0
2015-Aug-27 15:25N 59°16' E 011°05'0 0.0
2015-Aug-27 14:31N 59°16' E 011°05'0 0.0
2015-Aug-27 13:25N 59°16' E 011°05'0 0.0
2015-Aug-27 12:31N 59°16' E 011°05'0 0.0
2015-Aug-27 11:31N 59°16' E 011°05'0 0.0
2015-Aug-27 05:16N 59°16' E 011°05'0 0.0
2015-Aug-27 04:13N 59°16' E 011°05'0 0.0
2015-Aug-27 03:28N 59°16' E 011°05'0 0.0
2015-Aug-27 02:28N 59°16' E 011°05'0 0.0
2015-Aug-27 01:25N 59°16' E 011°05'0 0.0
2015-Aug-27 00:28N 59°16' E 011°05'0 0.0
2015-Aug-26 23:28N 59°16' E 011°05'0 0.0
2015-Aug-26 22:25N 59°16' E 011°05'0 0.0
2015-Aug-26 21:28N 59°16' E 011°05'0 0.0
2015-Aug-26 20:28N 59°16' E 011°05'0 0.0
2015-Aug-26 19:31N 59°16' E 011°05'4 4.4
2015-Aug-26 18:33N 59°13' E 010°59'7 6.5
2015-Aug-26 17:33N 59°07' E 010°58'7 6.8
2015-Aug-26 16:33N 59°02' E 010°50'8 7.7
2015-Aug-26 15:34N 58°55' E 010°44'9 9.4
2015-Aug-26 14:33N 58°45' E 010°44'9 9.1
2015-Aug-26 13:34N 58°36' E 010°45'9 9.0
2015-Aug-26 12:34N 58°27' E 010°45'10 9.6
2015-Aug-26 11:33N 58°17' E 010°46'9 9.3
2015-Aug-26 10:33N 58°08' E 010°46'9 9.3
2015-Aug-26 09:33N 57°59' E 010°46'10 9.5
2015-Aug-26 08:33N 57°49' E 010°47'11 2.6
2015-Aug-26 04:21N 57°39' E 010°43'  
Track history (hours):
 
Tides and Currents Weather Stations Pressure Air Temp Water Temp Dewpoint Dewpoint Depression Visibility Wind Speed Wind Dir Waves Ship Positions

Wilson Gdynia

Last reported at 2015-Sep-04 02:33 UTC. Time now 2015-Sep-04 21:05 UTC.
Position N 63°38' E 009°34'.

Length 88 m; draft 5.3 m.

Type: Cargo ship. MMSI: 314192000.

Date/timePositionNaut miles runAvg speedWind from/ knotsBaromVisibWave heightAir tempDewpointWater temp
2015-Sep-04 02:33N 63°38' E 009°34'8 7.8
2015-Sep-04 01:33N 63°35' E 009°50'9 9.5
2015-Sep-04 00:34N 63°29' E 010°08'1110.7
2015-Sep-03 23:33N 63°35' E 010°29'1111.0
2015-Sep-03 22:33N 63°41' E 010°49'1010.5
2015-Sep-03 21:33N 63°49' E 011°03'10 9.5
2015-Sep-03 20:33N 63°59' E 011°06'0 0.0
2015-Sep-03 19:33N 63°59' E 011°06'0 0.0
2015-Sep-03 18:34N 63°59' E 011°06'0 0.0
2015-Sep-03 17:34N 63°59' E 011°06'0 0.0
2015-Sep-03 16:34N 63°59' E 011°06'0 0.0
2015-Sep-03 15:34N 63°59' E 011°06'0 0.0
2015-Sep-03 14:33N 63°59' E 011°06'0 0.0
2015-Sep-03 13:34N 63°59' E 011°06'0 0.0
2015-Sep-03 12:34N 63°59' E 011°06'0 0.0
2015-Sep-03 11:34N 63°59' E 011°06'0 0.0
2015-Sep-03 10:34N 63°59' E 011°06'0 0.0
2015-Sep-03 09:34N 63°59' E 011°06'0 0.0
2015-Sep-03 08:34N 63°59' E 011°06'0 0.0
2015-Sep-03 07:33N 63°59' E 011°06'0 0.0
2015-Sep-03 06:34N 63°59' E 011°06'0 0.0
2015-Sep-03 05:34N 63°59' E 011°06'0 0.0
2015-Sep-03 04:34N 63°59' E 011°06'0 0.0
2015-Sep-03 03:34N 63°59' E 011°06'0 0.0
2015-Sep-03 02:34N 63°59' E 011°06'0 0.0
2015-Sep-03 01:34N 63°59' E 011°06'0 0.0
2015-Sep-03 00:34N 63°59' E 011°06'0 0.0
2015-Sep-02 23:34N 63°59' E 011°06'0 0.0
2015-Sep-02 22:34N 63°59' E 011°06'0 0.0
2015-Sep-02 21:34N 63°59' E 011°06'0 0.0
2015-Sep-02 20:34N 63°59' E 011°06'0 0.0
2015-Sep-02 19:34N 63°59' E 011°06'0 0.0
2015-Sep-02 18:33N 63°59' E 011°06'4 3.8
2015-Sep-02 17:33N 63°55' E 011°04'1010.3
2015-Sep-02 16:34N 63°45' E 010°59'1110.5
2015-Sep-02 15:34N 63°38' E 010°41'1110.8
2015-Sep-02 14:33N 63°29' E 010°27'3 2.8
2015-Sep-02 13:33N 63°27' E 010°24'0 0.0
2015-Sep-02 12:33N 63°27' E 010°24'0 0.1
2015-Sep-02 11:33N 63°27' E 010°24'0 0.1
2015-Sep-02 10:33N 63°27' E 010°24'0 0.0
2015-Sep-02 09:33N 63°27' E 010°24'0 0.1
2015-Sep-02 08:33N 63°27' E 010°24'0 0.0
2015-Sep-02 07:33N 63°27' E 010°24'0 0.1
2015-Sep-02 06:33N 63°27' E 010°24'0 0.1
2015-Sep-02 05:33N 63°27' E 010°24'0 0.0
2015-Sep-02 04:33N 63°27' E 010°24'0 0.0
2015-Sep-02 03:33N 63°27' E 010°24'0 0.1
2015-Sep-02 02:33N 63°27' E 010°24'0 0.0
2015-Sep-02 01:33N 63°27' E 010°24'0 0.0
2015-Sep-02 00:33N 63°27' E 010°24'0 0.0
2015-Sep-01 23:33N 63°27' E 010°24'0 0.1
2015-Sep-01 22:33N 63°27' E 010°24'0 0.1
2015-Sep-01 21:33N 63°27' E 010°24'0 0.1
2015-Sep-01 20:33N 63°27' E 010°24'0 0.0
2015-Sep-01 19:33N 63°27' E 010°24'0 0.0
2015-Sep-01 18:33N 63°27' E 010°24'0 0.0
2015-Sep-01 17:33N 63°27' E 010°24'0 0.0
2015-Sep-01 16:33N 63°27' E 010°24'0 0.0
2015-Sep-01 15:33N 63°27' E 010°24'0 0.0
2015-Sep-01 14:33N 63°27' E 010°24'6 6.2
2015-Sep-01 13:34N 63°28' E 010°10'8 7.9
2015-Sep-01 12:34N 63°20' E 010°09'1 1.1
2015-Sep-01 11:31N 63°19' E 010°10'0 0.0
2015-Sep-01 10:31N 63°19' E 010°10'0 0.0
2015-Sep-01 09:31N 63°19' E 010°10'0 0.0
2015-Sep-01 08:31N 63°19' E 010°10'0 0.0
2015-Sep-01 07:31N 63°19' E 010°10'0 0.0
2015-Sep-01 06:31N 63°19' E 010°10'0 0.0
2015-Sep-01 05:25N 63°19' E 010°10'0 0.0
2015-Sep-01 04:31N 63°19' E 010°10'0 0.0
2015-Sep-01 03:31N 63°19' E 010°10'0 0.0
2015-Sep-01 02:31N 63°19' E 010°10'0 0.0
2015-Sep-01 01:31N 63°19' E 010°10'0 0.0
2015-Sep-01 00:31N 63°19' E 010°10'0 0.0
2015-Aug-31 23:31N 63°19' E 010°10'0 0.0
2015-Aug-31 22:31N 63°19' E 010°10'0 0.0
2015-Aug-31 21:31N 63°19' E 010°10'0 0.0
2015-Aug-31 20:31N 63°19' E 010°10'0 0.0
2015-Aug-31 19:28N 63°19' E 010°10'0 0.0
2015-Aug-31 18:31N 63°19' E 010°10'0 0.0
2015-Aug-31 17:31N 63°19' E 010°10'0 0.0
2015-Aug-31 16:31N 63°19' E 010°10'0 0.0
2015-Aug-31 15:31N 63°19' E 010°10'0 0.0
2015-Aug-31 14:31N 63°19' E 010°10'0 0.0
2015-Aug-31 13:31N 63°19' E 010°10'0 0.0
2015-Aug-31 12:28N 63°19' E 010°10'0 0.0
2015-Aug-31 11:31N 63°19' E 010°10'0 0.0
2015-Aug-31 10:31N 63°19' E 010°10'0 0.0
2015-Aug-31 09:31N 63°19' E 010°10'0 0.0
2015-Aug-31 08:31N 63°19' E 010°10'0 0.0
2015-Aug-31 07:31N 63°19' E 010°10'0 0.0
2015-Aug-31 06:31N 63°19' E 010°10'1 0.6
2015-Aug-31 05:33N 63°19' E 010°10'7 7.2
2015-Aug-31 04:33N 63°25' E 010°01'1010.1
2015-Aug-31 03:33N 63°34' E 009°50'8 7.5
2015-Aug-31 02:33N 63°38' E 009°35'300 7.9
2015-Aug-29 12:28N 59°12' E 004°44'6 7.0
2015-Aug-29 11:34N 59°07' E 004°50'7 7.2
2015-Aug-29 10:33N 59°01' E 004°58'9 8.6
2015-Aug-29 09:34N 58°53' E 005°06'24 7.8
2015-Aug-29 06:30N 58°33' E 005°30'7 7.5
2015-Aug-29 05:33N 58°27' E 005°39'7 7.2
2015-Aug-29 04:34N 58°22' E 005°49'7 6.9
2015-Aug-29 03:30N 58°17' E 005°58'77 5.5
2015-Aug-28 13:33N 58°01' E 008°20'6 5.7
2015-Aug-28 12:32N 58°04' E 008°29'5 5.6
2015-Aug-28 11:33N 58°08' E 008°37'75 7.4
2015-Aug-28 01:31N 58°55' E 010°28'6 5.9
2015-Aug-28 00:33N 58°59' E 010°36'6 5.6
2015-Aug-27 23:33N 59°02' E 010°45'7 6.0
2015-Aug-27 22:26N 59°01' E 010°59'910.0
2015-Aug-27 21:33N 59°10' E 010°57'7 7.0
2015-Aug-27 20:33N 59°16' E 011°05'0 0.0
2015-Aug-27 17:31N 59°16' E 011°05'0 0.0
2015-Aug-27 16:31N 59°16' E 011°05'0 0.0
2015-Aug-27 15:25N 59°16' E 011°05'0 0.0
2015-Aug-27 14:31N 59°16' E 011°05'0 0.0
2015-Aug-27 13:25N 59°16' E 011°05'0 0.0
2015-Aug-27 12:31N 59°16' E 011°05'0 0.0
2015-Aug-27 11:31N 59°16' E 011°05'0 0.0
2015-Aug-27 05:16N 59°16' E 011°05'0 0.0
2015-Aug-27 04:13N 59°16' E 011°05'0 0.0
2015-Aug-27 03:28N 59°16' E 011°05'0 0.0
2015-Aug-27 02:28N 59°16' E 011°05'0 0.0
2015-Aug-27 01:25N 59°16' E 011°05'0 0.0
2015-Aug-27 00:28N 59°16' E 011°05'0 0.0
2015-Aug-26 23:28N 59°16' E 011°05'0 0.0
2015-Aug-26 22:25N 59°16' E 011°05'0 0.0
2015-Aug-26 21:28N 59°16' E 011°05'0 0.0
2015-Aug-26 20:28N 59°16' E 011°05'0 0.0
2015-Aug-26 19:31N 59°16' E 011°05'4 4.4
2015-Aug-26 18:33N 59°13' E 010°59'7 6.5
2015-Aug-26 17:33N 59°07' E 010°58'7 6.8
2015-Aug-26 16:33N 59°02' E 010°50'8 7.7
2015-Aug-26 15:34N 58°55' E 010°44'9 9.4
2015-Aug-26 14:33N 58°45' E 010°44'9 9.1
2015-Aug-26 13:34N 58°36' E 010°45'9 9.0
2015-Aug-26 12:34N 58°27' E 010°45'10 9.6
2015-Aug-26 11:33N 58°17' E 010°46'9 9.3
2015-Aug-26 10:33N 58°08' E 010°46'9 9.3
2015-Aug-26 09:33N 57°59' E 010°46'10 9.5
2015-Aug-26 08:33N 57°49' E 010°47'11 2.6
2015-Aug-26 04:21N 57°39' E 010°43'  

Dump ship's entire track history